Time;durP1;ratioP1;P1;durP2;ratioP2;P2;SDS_P1;SDS_P2;PMS_P1;PMS_P2;Temp;Humidity;BMP_temperature;BMP_pressure;BME280_temperature;BME280_humidity;BME280_pressure;Samples;Min_cycle;Max_cycle;Signal;HPM_P1;HPM_P2
2024/03/22 00:01:57;;;;;;;;;;;25.00;43.30;;;;;;5074266;28;19935;-42
2024/03/22 00:04:23;;;;;;;;;;;25.00;43.40;;;;;;5071322;28;19982;-42
2024/03/22 00:06:51;;;;;;;;;;;25.00;43.40;;;;;;5074846;28;19913;-43
2024/03/22 00:09:19;;;;;;;;;;;25.00;43.30;;;;;;5064026;28;19917;-42
2024/03/22 00:11:45;;;;;;;;;;;25.00;43.30;;;;;;5067386;28;19913;-41
2024/03/22 00:14:20;;;;;;;;;;;25.00;43.30;;;;;;5064868;28;19920;-41
2024/03/22 00:16:47;;;;;;;;;;;25.00;43.20;;;;;;5071191;28;19919;-41
2024/03/22 00:19:14;;;;;;;;;;;25.00;43.20;;;;;;5070294;28;19973;-43
2024/03/22 00:21:40;;;;;;;;;;;24.90;43.30;;;;;;5064126;28;19912;-42
2024/03/22 00:24:07;;;;;;;;;;;24.90;43.60;;;;;;5073859;28;19939;-40
2024/03/22 00:26:34;;;;;;;;;;;24.90;43.70;;;;;;5073874;28;19923;-41
2024/03/22 00:29:01;;;;;;;;;;;24.90;43.60;;;;;;5075393;28;20007;-45
2024/03/22 00:31:27;;;;;;;;;;;24.90;43.80;;;;;;5065871;28;19912;-40
2024/03/22 00:33:53;;;;;;;;;;;24.80;43.70;;;;;;5079704;28;19925;-43
2024/03/22 00:36:19;;;;;;;;;;;24.80;43.50;;;;;;5073598;28;19952;-46
2024/03/22 00:38:45;;;;;;;;;;;24.80;43.30;;;;;;5068460;28;19958;-41
2024/03/22 00:41:11;;;;;;;;;;;24.80;43.30;;;;;;5075650;28;19912;-42
2024/03/22 00:43:37;;;;;;;;;;;24.80;43.30;;;;;;5080959;28;19966;-43
2024/03/22 00:46:03;;;;;;;;;;;24.80;43.40;;;;;;5077394;28;20297;-44
2024/03/22 00:48:29;;;;;;;;;;;24.80;43.40;;;;;;5082049;28;20118;-42
2024/03/22 00:50:55;;;;;;;;;;;24.80;43.40;;;;;;5083168;28;20408;-42
2024/03/22 00:53:21;;;;;;;;;;;24.70;43.30;;;;;;5082393;28;19971;-41
2024/03/22 00:55:50;;;;;;;;;;;24.70;43.40;;;;;;5078698;28;19919;-40
2024/03/22 00:58:19;;;;;;;;;;;24.70;43.50;;;;;;5083118;28;19914;-41
2024/03/22 01:00:46;;;;;;;;;;;24.70;43.70;;;;;;5082620;28;19976;-44
2024/03/22 01:03:13;;;;;;;;;;;24.60;43.70;;;;;;5076389;28;19947;-43
2024/03/22 01:05:40;;;;;;;;;;;24.60;43.70;;;;;;5081945;28;19917;-41
2024/03/22 01:08:06;;;;;;;;;;;24.60;43.60;;;;;;5082591;28;19915;-42
2024/03/22 01:10:34;;;;;;;;;;;24.60;43.50;;;;;;5083271;28;19932;-42
2024/03/22 01:13:06;;;;;;;;;;;24.60;43.40;;;;;;5070335;28;19923;-41
2024/03/22 01:15:32;;;;;;;;;;;24.60;43.40;;;;;;5082216;28;19908;-43
2024/03/22 01:18:00;;;;;;;;;;;24.60;43.50;;;;;;5082447;28;19913;-44
2024/03/22 01:20:29;;;;;;;;;;;24.50;43.40;;;;;;5082128;28;20514;-42
2024/03/22 01:23:02;;;;;;;;;;;24.50;43.40;;;;;;5083053;28;19966;-41
2024/03/22 01:25:32;;;;;;;;;;;24.50;43.40;;;;;;5076314;28;20454;-43
2024/03/22 01:27:58;;;;;;;;;;;24.50;43.40;;;;;;5064815;28;19920;-42
2024/03/22 01:30:29;;;;;;;;;;;24.50;43.30;;;;;;5066001;28;19997;-40
2024/03/22 01:32:58;;;;;;;;;;;24.50;43.40;;;;;;5079269;28;20474;-41
2024/03/22 01:35:24;;;;;;;;;;;24.40;43.40;;;;;;5065320;28;19912;-45
2024/03/22 01:38:05;;;;;;;;;;;24.40;43.60;;;;;;5070143;28;20007;-43
2024/03/22 01:40:31;;;;;;;;;;;24.40;43.60;;;;;;5078813;28;19905;-46
2024/03/22 01:42:58;;;;;;;;;;;24.40;43.70;;;;;;5075454;28;19912;-44
2024/03/22 01:45:24;;;;;;;;;;;24.30;43.50;;;;;;5080321;28;19923;-42
2024/03/22 01:47:56;;;;;;;;;;;24.30;43.50;;;;;;5074453;28;19947;-41
2024/03/22 01:50:24;;;;;;;;;;;24.30;43.40;;;;;;5081539;28;19940;-40
2024/03/22 01:52:52;;;;;;;;;;;24.30;43.30;;;;;;5070274;28;20339;-40
2024/03/22 01:55:19;;;;;;;;;;;24.30;43.30;;;;;;5078721;28;20386;-41
2024/03/22 01:57:46;;;;;;;;;;;24.30;43.30;;;;;;5077512;28;19913;-42
2024/03/22 02:00:12;;;;;;;;;;;24.30;43.40;;;;;;5070782;28;20023;-43
2024/03/22 02:02:39;;;;;;;;;;;24.20;43.30;;;;;;5073661;28;19924;-44
2024/03/22 02:05:21;;;;;;;;;;;24.20;43.30;;;;;;5077811;28;19940;-43
2024/03/22 02:07:50;;;;;;;;;;;24.20;43.40;;;;;;5075073;28;20036;-41
2024/03/22 02:10:17;;;;;;;;;;;24.10;43.40;;;;;;5081965;28;19955;-41
2024/03/22 02:12:43;;;;;;;;;;;24.10;43.30;;;;;;5073060;28;20500;-42
2024/03/22 02:15:10;;;;;;;;;;;24.10;43.40;;;;;;5075130;28;19908;-41
2024/03/22 02:17:36;;;;;;;;;;;24.10;43.40;;;;;;5071565;28;19915;-42
2024/03/22 02:20:07;;;;;;;;;;;24.10;43.50;;;;;;5071298;28;19931;-43
2024/03/22 02:22:35;;;;;;;;;;;24.10;43.50;;;;;;5071371;28;19924;-43
2024/03/22 02:25:02;;;;;;;;;;;24.00;43.50;;;;;;5069492;28;19912;-45
2024/03/22 02:27:28;;;;;;;;;;;24.00;43.50;;;;;;5065074;28;19948;-42
2024/03/22 02:29:55;;;;;;;;;;;24.00;43.50;;;;;;5064476;28;19908;-41
2024/03/22 02:32:21;;;;;;;;;;;24.00;43.50;;;;;;5071417;28;19917;-42
2024/03/22 02:34:47;;;;;;;;;;;24.00;43.50;;;;;;5088500;28;19958;-44
2024/03/22 02:37:17;;;;;;;;;;;24.00;43.50;;;;;;5079138;28;19908;-42
2024/03/22 02:39:43;;;;;;;;;;;23.90;43.50;;;;;;5077661;28;19965;-43
2024/03/22 02:42:10;;;;;;;;;;;23.90;43.50;;;;;;5063618;28;19920;-43
2024/03/22 02:44:42;;;;;;;;;;;23.90;43.50;;;;;;5072053;28;19948;-45
2024/03/22 02:47:09;;;;;;;;;;;23.90;43.50;;;;;;5076355;28;19919;-44
2024/03/22 02:49:36;;;;;;;;;;;23.80;43.50;;;;;;5065114;28;19912;-40
2024/03/22 02:52:02;;;;;;;;;;;23.80;43.50;;;;;;5073701;28;20381;-44
2024/03/22 02:54:28;;;;;;;;;;;23.80;43.60;;;;;;5069066;28;19986;-41
2024/03/22 02:56:56;;;;;;;;;;;23.80;43.60;;;;;;5077101;28;19908;-42
2024/03/22 02:59:26;;;;;;;;;;;23.80;43.60;;;;;;5070515;28;19916;-45
2024/03/22 03:01:52;;;;;;;;;;;23.70;43.70;;;;;;5063988;28;19916;-48
2024/03/22 03:04:19;;;;;;;;;;;23.70;43.60;;;;;;5069635;28;19908;-41
2024/03/22 03:06:48;;;;;;;;;;;23.70;43.60;;;;;;5078244;28;19916;-45
2024/03/22 03:09:14;;;;;;;;;;;23.70;43.70;;;;;;5070272;28;19920;-41
2024/03/22 03:11:41;;;;;;;;;;;23.70;43.70;;;;;;5073536;28;20451;-42
2024/03/22 03:14:08;;;;;;;;;;;23.60;43.70;;;;;;5076184;28;20459;-42
2024/03/22 03:16:34;;;;;;;;;;;23.60;43.70;;;;;;5081508;28;20007;-42
2024/03/22 03:19:01;;;;;;;;;;;23.60;43.70;;;;;;5070660;28;19909;-43
2024/03/22 03:21:27;;;;;;;;;;;23.60;43.80;;;;;;5063640;28;19919;-42
2024/03/22 03:23:53;;;;;;;;;;;23.60;43.80;;;;;;5072469;28;19923;-42
2024/03/22 03:26:20;;;;;;;;;;;23.60;43.80;;;;;;5070353;28;19912;-44
2024/03/22 03:28:46;;;;;;;;;;;23.50;43.80;;;;;;5060335;28;20270;-42
2024/03/22 03:31:12;;;;;;;;;;;23.50;43.80;;;;;;5074492;28;19912;-43
2024/03/22 03:33:38;;;;;;;;;;;23.50;43.80;;;;;;5071758;28;19963;-41
2024/03/22 03:36:05;;;;;;;;;;;23.50;43.80;;;;;;5073900;28;19908;-44
2024/03/22 03:38:31;;;;;;;;;;;23.50;43.90;;;;;;5081634;28;19968;-42
2024/03/22 03:40:58;;;;;;;;;;;23.40;43.90;;;;;;5072609;28;19912;-44
2024/03/22 03:43:24;;;;;;;;;;;23.40;43.90;;;;;;5066125;28;19913;-44
2024/03/22 03:45:50;;;;;;;;;;;23.40;43.90;;;;;;5074111;28;19919;-44
2024/03/22 03:48:17;;;;;;;;;;;23.40;43.90;;;;;;5067264;28;20003;-42
2024/03/22 03:50:50;;;;;;;;;;;23.30;43.90;;;;;;5063601;28;19927;-42
2024/03/22 03:53:17;;;;;;;;;;;23.30;44.00;;;;;;5071959;28;19919;-43
2024/03/22 03:55:43;;;;;;;;;;;23.30;44.00;;;;;;5075600;28;19917;-44
2024/03/22 03:58:09;;;;;;;;;;;23.30;44.00;;;;;;5077198;28;19911;-43
2024/03/22 04:00:36;;;;;;;;;;;23.30;44.10;;;;;;5082392;28;20011;-44
2024/03/22 04:03:02;;;;;;;;;;;23.30;44.10;;;;;;5077782;28;19912;-42
2024/03/22 04:05:28;;;;;;;;;;;23.20;44.10;;;;;;5075675;28;19912;-45
2024/03/22 04:07:54;;;;;;;;;;;23.20;44.10;;;;;;5077190;28;19908;-43
2024/03/22 04:10:21;;;;;;;;;;;23.20;44.10;;;;;;5077020;28;19909;-45
2024/03/22 04:12:46;;;;;;;;;;;23.20;44.20;;;;;;5076519;28;20023;-41
2024/03/22 04:15:12;;;;;;;;;;;23.20;44.20;;;;;;5079988;28;19942;-43
2024/03/22 04:17:38;;;;;;;;;;;23.10;44.20;;;;;;5081308;28;19990;-41
2024/03/22 04:20:05;;;;;;;;;;;23.10;44.20;;;;;;5078569;28;19916;-44
2024/03/22 04:22:31;;;;;;;;;;;23.10;44.20;;;;;;5082657;28;19908;-41
2024/03/22 04:24:57;;;;;;;;;;;23.10;44.20;;;;;;5083038;28;19908;-42
2024/03/22 04:27:23;;;;;;;;;;;23.10;44.30;;;;;;5083263;28;20368;-41
2024/03/22 04:29:49;;;;;;;;;;;23.00;44.30;;;;;;5083141;28;19957;-41
2024/03/22 04:32:15;;;;;;;;;;;23.00;44.30;;;;;;5082883;28;19908;-41
2024/03/22 04:34:44;;;;;;;;;;;23.00;44.30;;;;;;5080358;28;19909;-41
2024/03/22 04:37:11;;;;;;;;;;;23.00;44.60;;;;;;5066774;28;19905;-41
2024/03/22 04:39:37;;;;;;;;;;;23.00;44.80;;;;;;5081733;28;20007;-45
2024/03/22 04:42:03;;;;;;;;;;;23.10;44.90;;;;;;5084858;28;19912;-42
2024/03/22 04:44:29;;;;;;;;;;;23.10;44.90;;;;;;5081478;28;19954;-43
2024/03/22 04:46:55;;;;;;;;;;;23.10;45.00;;;;;;5073156;28;19917;-43
2024/03/22 04:49:21;;;;;;;;;;;23.00;44.90;;;;;;5079723;28;19943;-41
2024/03/22 04:51:47;;;;;;;;;;;23.00;44.90;;;;;;5075357;28;19920;-42
2024/03/22 04:54:13;;;;;;;;;;;23.00;44.90;;;;;;5082546;28;19926;-42
2024/03/22 04:56:39;;;;;;;;;;;22.90;44.80;;;;;;5082156;28;19924;-45
2024/03/22 04:59:05;;;;;;;;;;;22.90;44.90;;;;;;5077961;28;19912;-44
2024/03/22 05:01:31;;;;;;;;;;;22.90;44.90;;;;;;5080301;28;19982;-43
2024/03/22 05:03:57;;;;;;;;;;;22.90;45.10;;;;;;5082218;28;19934;-42
2024/03/22 05:06:23;;;;;;;;;;;23.00;45.40;;;;;;5081296;28;19912;-42
2024/03/22 05:08:49;;;;;;;;;;;23.00;45.40;;;;;;5081542;28;19967;-46
2024/03/22 05:11:14;;;;;;;;;;;23.00;45.40;;;;;;5082922;28;20350;-52
2024/03/22 05:13:40;;;;;;;;;;;23.00;45.30;;;;;;5073573;28;20358;-44
2024/03/22 05:16:07;;;;;;;;;;;23.00;45.30;;;;;;5077302;28;19908;-44
2024/03/22 05:18:32;;;;;;;;;;;22.90;45.30;;;;;;5081809;28;19984;-43
2024/03/22 05:20:58;;;;;;;;;;;22.90;45.30;;;;;;5078997;28;19940;-43
2024/03/22 05:23:24;;;;;;;;;;;22.90;45.20;;;;;;5069912;28;20124;-45
2024/03/22 05:25:50;;;;;;;;;;;22.90;45.20;;;;;;5067635;28;19990;-42
2024/03/22 05:28:16;;;;;;;;;;;22.90;45.20;;;;;;5065035;28;19919;-44
2024/03/22 05:30:42;;;;;;;;;;;22.90;45.30;;;;;;5080485;28;19951;-42
2024/03/22 05:33:08;;;;;;;;;;;22.90;45.50;;;;;;5070942;28;19998;-43
2024/03/22 05:35:33;;;;;;;;;;;22.90;45.60;;;;;;5075977;28;19976;-43
2024/03/22 05:38:00;;;;;;;;;;;22.90;45.60;;;;;;5082840;28;19986;-42
2024/03/22 05:40:26;;;;;;;;;;;22.90;45.60;;;;;;5076318;28;19912;-43
2024/03/22 05:42:52;;;;;;;;;;;22.90;45.50;;;;;;5083786;28;19919;-42
2024/03/22 05:45:17;;;;;;;;;;;22.90;45.50;;;;;;5076304;28;20746;-42
2024/03/22 05:47:43;;;;;;;;;;;22.90;45.50;;;;;;5083722;28;19912;-40
2024/03/22 05:50:09;;;;;;;;;;;22.80;45.40;;;;;;5083395;28;19915;-40
2024/03/22 05:52:35;;;;;;;;;;;22.80;45.40;;;;;;5074059;28;19921;-41
2024/03/22 05:55:01;;;;;;;;;;;22.80;45.60;;;;;;5068824;28;19939;-41
2024/03/22 05:57:27;;;;;;;;;;;22.90;45.70;;;;;;5072770;28;19913;-41
2024/03/22 05:59:53;;;;;;;;;;;22.90;45.70;;;;;;5075229;28;19923;-42
2024/03/22 06:02:19;;;;;;;;;;;22.90;45.60;;;;;;5067944;28;19976;-41
2024/03/22 06:04:45;;;;;;;;;;;22.90;45.60;;;;;;5082677;28;19912;-46
2024/03/22 06:07:12;;;;;;;;;;;22.90;45.60;;;;;;5069076;28;19912;-41
2024/03/22 06:09:45;;;;;;;;;;;22.90;45.60;;;;;;5066893;28;19934;-41
2024/03/22 06:12:14;;;;;;;;;;;22.80;45.60;;;;;;5077823;28;19913;-40
2024/03/22 06:14:43;;;;;;;;;;;22.80;45.50;;;;;;5075403;28;19942;-43
2024/03/22 06:17:08;;;;;;;;;;;22.80;45.50;;;;;;5076462;28;19913;-47
2024/03/22 06:19:35;;;;;;;;;;;22.80;45.60;;;;;;5071920;28;20437;-41
2024/03/22 06:22:01;;;;;;;;;;;22.90;45.80;;;;;;5082556;28;19908;-42
2024/03/22 06:24:27;;;;;;;;;;;22.90;45.70;;;;;;5077932;28;19916;-46
2024/03/22 06:26:53;;;;;;;;;;;22.90;45.70;;;;;;5068928;28;19924;-40
2024/03/22 06:29:19;;;;;;;;;;;22.90;45.70;;;;;;5071543;28;19913;-43
2024/03/22 06:31:45;;;;;;;;;;;22.90;45.70;;;;;;5071868;28;19970;-44
2024/03/22 06:34:10;;;;;;;;;;;22.90;45.60;;;;;;5072375;28;19920;-44
2024/03/22 06:36:36;;;;;;;;;;;22.80;45.60;;;;;;5065075;28;19915;-47
2024/03/22 06:39:06;;;;;;;;;;;22.80;45.60;;;;;;5067394;28;19917;-42
2024/03/22 06:41:32;;;;;;;;;;;22.80;45.60;;;;;;5072919;28;19912;-44
2024/03/22 06:43:58;;;;;;;;;;;22.80;45.60;;;;;;5074450;28;19928;-44
2024/03/22 06:46:24;;;;;;;;;;;22.80;45.70;;;;;;5071512;28;19917;-42
2024/03/22 06:48:50;;;;;;;;;;;22.90;45.80;;;;;;5072365;28;19954;-41
2024/03/22 06:51:16;;;;;;;;;;;22.90;45.80;;;;;;5070487;28;19912;-42
2024/03/22 06:53:42;;;;;;;;;;;22.90;45.70;;;;;;5069796;28;19928;-44
2024/03/22 06:56:11;;;;;;;;;;;22.80;45.70;;;;;;5066102;28;20692;-42
2024/03/22 06:58:38;;;;;;;;;;;22.80;45.60;;;;;;5067627;28;19919;-41
2024/03/22 07:01:04;;;;;;;;;;;22.80;45.60;;;;;;5070614;28;19970;-43
2024/03/22 07:03:30;;;;;;;;;;;22.80;46.00;;;;;;5077324;28;19916;-43
2024/03/22 07:05:57;;;;;;;;;;;22.80;45.70;;;;;;5072562;28;19968;-42
2024/03/22 07:08:23;;;;;;;;;;;22.80;45.80;;;;;;5069793;28;19994;-44
2024/03/22 07:10:50;;;;;;;;;;;22.90;45.80;;;;;;5069250;28;19935;-44
2024/03/22 07:13:16;;;;;;;;;;;22.90;45.80;;;;;;5076883;28;19916;-42
2024/03/22 07:15:44;;;;;;;;;;;22.90;45.70;;;;;;5068324;28;19912;-43
2024/03/22 07:18:10;;;;;;;;;;;22.90;45.70;;;;;;5067641;28;20366;-44
2024/03/22 07:20:36;;;;;;;;;;;22.80;45.70;;;;;;5073108;28;19935;-47
2024/03/22 07:23:04;;;;;;;;;;;22.80;45.70;;;;;;5076109;28;19912;-42
2024/03/22 07:25:30;;;;;;;;;;;22.80;45.70;;;;;;5073740;28;19913;-46
2024/03/22 07:27:56;;;;;;;;;;;22.80;45.80;;;;;;5066315;28;19912;-43
2024/03/22 07:30:22;;;;;;;;;;;22.90;46.00;;;;;;5075938;28;19964;-43
2024/03/22 07:32:48;;;;;;;;;;;22.90;45.90;;;;;;5078460;28;19916;-46
2024/03/22 07:35:14;;;;;;;;;;;22.90;45.90;;;;;;5077719;28;19913;-41
2024/03/22 07:37:40;;;;;;;;;;;22.90;45.90;;;;;;5079661;28;19917;-42
2024/03/22 07:40:06;;;;;;;;;;;22.80;45.80;;;;;;5079036;28;19966;-45
2024/03/22 07:42:32;;;;;;;;;;;22.80;45.80;;;;;;5078399;28;19913;-43
2024/03/22 07:44:58;;;;;;;;;;;22.80;45.80;;;;;;5076876;28;19960;-45
2024/03/22 07:47:25;;;;;;;;;;;22.80;45.80;;;;;;5069961;28;19909;-41
2024/03/22 07:49:50;;;;;;;;;;;22.80;45.90;;;;;;5072396;28;19912;-43
2024/03/22 07:52:16;;;;;;;;;;;22.90;46.00;;;;;;5072199;28;19927;-42
2024/03/22 07:54:42;;;;;;;;;;;22.90;46.00;;;;;;5074064;28;19924;-41
2024/03/22 07:57:10;;;;;;;;;;;22.90;46.00;;;;;;5078163;28;19939;-42
2024/03/22 07:59:36;;;;;;;;;;;22.80;45.90;;;;;;5078335;28;20258;-42
2024/03/22 08:02:03;;;;;;;;;;;22.80;45.90;;;;;;5079368;28;19912;-42
2024/03/22 08:04:29;;;;;;;;;;;22.80;45.90;;;;;;5076219;28;19912;-45
2024/03/22 08:06:55;;;;;;;;;;;22.80;45.80;;;;;;5073573;28;19916;-42
2024/03/22 08:09:20;;;;;;;;;;;22.80;45.90;;;;;;5074148;28;19912;-43
2024/03/22 08:11:47;;;;;;;;;;;22.80;46.00;;;;;;5091952;28;20643;-42
2024/03/22 08:14:13;;;;;;;;;;;22.90;46.00;;;;;;5074782;28;20030;-45
2024/03/22 08:16:39;;;;;;;;;;;22.90;46.00;;;;;;5075219;28;19921;-42
2024/03/22 08:19:05;;;;;;;;;;;22.80;46.00;;;;;;5073719;28;19913;-42
2024/03/22 08:21:31;;;;;;;;;;;22.80;45.90;;;;;;5072256;28;19908;-43
2024/03/22 08:23:57;;;;;;;;;;;22.80;45.90;;;;;;5072624;28;19912;-44
2024/03/22 08:26:23;;;;;;;;;;;22.80;45.90;;;;;;5068318;28;19923;-42
2024/03/22 08:28:48;;;;;;;;;;;22.80;46.00;;;;;;5077044;28;19995;-43
2024/03/22 08:31:14;;;;;;;;;;;22.80;46.00;;;;;;5077040;28;19912;-41
2024/03/22 08:33:40;;;;;;;;;;;22.80;46.00;;;;;;5080400;28;19946;-42
2024/03/22 08:36:06;;;;;;;;;;;22.90;46.00;;;;;;5066735;28;19916;-42
2024/03/22 08:38:33;;;;;;;;;;;22.90;46.10;;;;;;5074297;28;19913;-43
2024/03/22 08:40:59;;;;;;;;;;;22.80;45.90;;;;;;5076714;28;19920;-44
2024/03/22 08:43:29;;;;;;;;;;;22.80;45.90;;;;;;5082886;28;20103;-43
2024/03/22 08:45:55;;;;;;;;;;;22.80;45.90;;;;;;5069990;28;19913;-43
2024/03/22 08:48:21;;;;;;;;;;;22.80;45.90;;;;;;5076220;28;19904;-41
2024/03/22 08:50:47;;;;;;;;;;;22.80;46.00;;;;;;5075859;28;19982;-44
2024/03/22 08:53:13;;;;;;;;;;;22.80;46.10;;;;;;5075942;28;19939;-43
2024/03/22 08:55:45;;;;;;;;;;;22.80;46.00;;;;;;5076286;28;19919;-44
2024/03/22 08:58:10;;;;;;;;;;;22.90;46.10;;;;;;5087189;28;19912;-43
2024/03/22 09:00:37;;;;;;;;;;;22.80;45.90;;;;;;5068429;28;19905;-41
2024/03/22 09:03:03;;;;;;;;;;;22.80;45.90;;;;;;5072393;28;19924;-44
2024/03/22 09:05:29;;;;;;;;;;;22.80;45.90;;;;;;5066464;28;19976;-46
2024/03/22 09:07:56;;;;;;;;;;;22.80;45.90;;;;;;5076117;28;19976;-42
2024/03/22 09:10:22;;;;;;;;;;;22.80;45.90;;;;;;5075322;28;19904;-41
2024/03/22 09:12:48;;;;;;;;;;;22.80;46.00;;;;;;5075521;28;20377;-42
2024/03/22 09:15:14;;;;;;;;;;;22.80;46.10;;;;;;5085107;28;19908;-42
2024/03/22 09:17:40;;;;;;;;;;;22.80;46.00;;;;;;5076420;28;19970;-42
2024/03/22 09:20:07;;;;;;;;;;;22.80;46.00;;;;;;5082782;28;19954;-43
2024/03/22 09:22:33;;;;;;;;;;;22.80;46.00;;;;;;5075054;28;19916;-41
2024/03/22 09:24:59;;;;;;;;;;;22.80;46.00;;;;;;5076196;28;19950;-42
2024/03/22 09:27:25;;;;;;;;;;;22.80;46.00;;;;;;5082717;28;19904;-45
2024/03/22 09:29:52;;;;;;;;;;;22.80;46.00;;;;;;5068937;28;19931;-42
2024/03/22 09:32:18;;;;;;;;;;;22.80;46.00;;;;;;5082620;28;19904;-42
2024/03/22 09:34:44;;;;;;;;;;;22.80;46.10;;;;;;5080697;28;19913;-45
2024/03/22 09:37:10;;;;;;;;;;;22.80;46.10;;;;;;5077161;28;19905;-42
2024/03/22 09:39:36;;;;;;;;;;;22.80;46.10;;;;;;5086890;28;19913;-41
2024/03/22 09:42:02;;;;;;;;;;;22.80;46.00;;;;;;5082419;28;19919;-40
2024/03/22 09:44:27;;;;;;;;;;;22.80;46.00;;;;;;5081023;28;19923;-44
2024/03/22 09:46:53;;;;;;;;;;;22.80;46.00;;;;;;5082510;28;19979;-41
2024/03/22 09:49:19;;;;;;;;;;;22.80;46.00;;;;;;5081873;28;19915;-43
2024/03/22 09:51:45;;;;;;;;;;;22.70;46.00;;;;;;5065459;28;19908;-44
2024/03/22 09:54:11;;;;;;;;;;;22.80;46.10;;;;;;5069859;28;19928;-41
2024/03/22 09:56:38;;;;;;;;;;;22.80;46.10;;;;;;5080409;28;20002;-42
2024/03/22 09:59:04;;;;;;;;;;;22.80;46.10;;;;;;5070443;28;19912;-42
2024/03/22 10:01:30;;;;;;;;;;;22.80;46.10;;;;;;5071212;28;19915;-42
2024/03/22 10:03:56;;;;;;;;;;;22.80;46.10;;;;;;5076046;28;19958;-41
2024/03/22 10:06:22;;;;;;;;;;;22.80;46.00;;;;;;5070338;28;19948;-41
2024/03/22 10:08:48;;;;;;;;;;;22.70;46.00;;;;;;5075812;28;19938;-43
2024/03/22 10:11:13;;;;;;;;;;;22.70;46.00;;;;;;5075158;28;19917;-42
2024/03/22 10:13:39;;;;;;;;;;;22.70;46.00;;;;;;5072852;28;19932;-41
2024/03/22 10:16:05;;;;;;;;;;;22.70;46.10;;;;;;5071624;28;20003;-46
2024/03/22 10:18:34;;;;;;;;;;;22.80;46.20;;;;;;5079799;28;19930;-41
2024/03/22 10:21:01;;;;;;;;;;;22.80;46.20;;;;;;5068679;28;19971;-42
2024/03/22 10:23:27;;;;;;;;;;;22.80;46.20;;;;;;5077240;28;19913;-43
2024/03/22 10:25:52;;;;;;;;;;;22.80;46.10;;;;;;5068160;28;20119;-42
2024/03/22 10:28:18;;;;;;;;;;;22.80;46.10;;;;;;5064622;28;19912;-42
2024/03/22 10:30:44;;;;;;;;;;;22.70;46.10;;;;;;5066323;28;19920;-42
2024/03/22 10:33:10;;;;;;;;;;;22.70;46.10;;;;;;5069151;28;19967;-44
2024/03/22 10:35:36;;;;;;;;;;;22.70;46.10;;;;;;5071984;28;19909;-42
2024/03/22 10:38:02;;;;;;;;;;;22.80;46.20;;;;;;5074050;28;19960;-45
2024/03/22 10:40:28;;;;;;;;;;;22.80;46.20;;;;;;5072850;28;19915;-46
2024/03/22 10:42:54;;;;;;;;;;;22.80;46.20;;;;;;5066905;28;20341;-42
2024/03/22 10:45:25;;;;;;;;;;;22.80;46.20;;;;;;5074487;28;19920;-46
2024/03/22 10:47:51;;;;;;;;;;;22.70;46.10;;;;;;5067462;28;20010;-42
2024/03/22 10:50:16;;;;;;;;;;;22.70;46.10;;;;;;5074127;28;19912;-41
2024/03/22 10:52:45;;;;;;;;;;;22.70;46.10;;;;;;5067318;28;19916;-42
2024/03/22 10:55:12;;;;;;;;;;;22.70;46.20;;;;;;5071865;28;19962;-41
2024/03/22 10:57:38;;;;;;;;;;;22.80;46.80;;;;;;5063621;28;19920;-43
2024/03/22 11:00:10;;;;;;;;;;;22.80;46.20;;;;;;5077474;28;19912;-43
2024/03/22 11:02:37;;;;;;;;;;;22.80;46.20;;;;;;5070971;28;19912;-42
2024/03/22 11:05:03;;;;;;;;;;;22.80;46.20;;;;;;5085071;28;19912;-42
2024/03/22 11:07:29;;;;;;;;;;;22.70;46.10;;;;;;5063363;28;19939;-43
2024/03/22 11:10:03;;;;;;;;;;;22.70;46.10;;;;;;5063961;28;19912;-42
2024/03/22 11:12:33;;;;;;;;;;;22.70;46.10;;;;;;5064580;28;20491;-41
2024/03/22 11:14:59;;;;;;;;;;;22.70;46.10;;;;;;5076615;28;19913;-44
2024/03/22 11:17:25;;;;;;;;;;;22.70;46.30;;;;;;5070332;28;19909;-41
2024/03/22 11:19:51;;;;;;;;;;;22.80;46.30;;;;;;5073312;28;19926;-42
2024/03/22 11:22:17;;;;;;;;;;;22.80;46.30;;;;;;5080549;28;19912;-43
2024/03/22 11:24:43;;;;;;;;;;;22.80;46.30;;;;;;5079512;28;19924;-42
2024/03/22 11:27:10;;;;;;;;;;;22.70;46.20;;;;;;5081842;28;19932;-42
2024/03/22 11:29:38;;;;;;;;;;;22.70;46.20;;;;;;5064622;28;19908;-42
2024/03/22 11:32:05;;;;;;;;;;;22.70;46.20;;;;;;5067471;28;19915;-43
2024/03/22 11:34:30;;;;;;;;;;;22.70;46.20;;;;;;5063896;28;19909;-46
2024/03/22 11:36:56;;;;;;;;;;;22.70;46.20;;;;;;5077577;28;19967;-42
2024/03/22 11:39:22;;;;;;;;;;;22.70;46.30;;;;;;5068340;28;20024;-42
2024/03/22 11:41:50;;;;;;;;;;;22.70;46.40;;;;;;5077681;28;19912;-42
2024/03/22 11:44:18;;;;;;;;;;;22.80;46.40;;;;;;5070784;28;19942;-42
2024/03/22 11:46:44;;;;;;;;;;;22.70;46.30;;;;;;5076411;28;20010;-42
2024/03/22 11:49:10;;;;;;;;;;;22.70;46.30;;;;;;5068455;28;19995;-43
2024/03/22 11:51:36;;;;;;;;;;;22.70;46.30;;;;;;5065192;28;19915;-43
2024/03/22 11:54:07;;;;;;;;;;;22.70;46.30;;;;;;5075145;28;19947;-43
2024/03/22 11:56:34;;;;;;;;;;;22.70;46.40;;;;;;5063716;28;20449;-42
2024/03/22 11:59:00;;;;;;;;;;;22.70;46.40;;;;;;5067290;28;19975;-42
2024/03/22 12:01:26;;;;;;;;;;;22.70;46.50;;;;;;5064309;28;19913;-41
2024/03/22 12:03:52;;;;;;;;;;;22.70;46.40;;;;;;5069726;28;20023;-42
2024/03/22 12:06:18;;;;;;;;;;;22.70;46.40;;;;;;5068510;28;20399;-41
2024/03/22 12:08:44;;;;;;;;;;;22.70;46.30;;;;;;5070158;28;19943;-44
2024/03/22 12:11:10;;;;;;;;;;;22.70;46.30;;;;;;5070227;28;19980;-44
2024/03/22 12:13:37;;;;;;;;;;;22.70;46.30;;;;;;5070719;28;19923;-43
2024/03/22 12:16:03;;;;;;;;;;;22.70;46.40;;;;;;5067529;28;19918;-43
2024/03/22 12:18:29;;;;;;;;;;;22.70;46.40;;;;;;5079524;28;19919;-43
2024/03/22 12:20:55;;;;;;;;;;;22.70;47.10;;;;;;5076751;28;20163;-42
2024/03/22 12:23:21;;;;;;;;;;;22.80;46.50;;;;;;5076445;28;19912;-44
2024/03/22 12:25:47;;;;;;;;;;;22.70;46.40;;;;;;5078325;28;19912;-42
2024/03/22 12:28:14;;;;;;;;;;;22.70;46.40;;;;;;5073727;28;20077;-42
2024/03/22 12:30:40;;;;;;;;;;;22.70;46.40;;;;;;5075800;28;19935;-43
2024/03/22 12:33:10;;;;;;;;;;;22.70;46.40;;;;;;5074076;28;19916;-42
2024/03/22 12:35:36;;;;;;;;;;;22.70;46.40;;;;;;5074616;28;19908;-44
2024/03/22 12:38:02;;;;;;;;;;;22.60;46.40;;;;;;5074011;28;19979;-44
2024/03/22 12:40:29;;;;;;;;;;;22.70;46.50;;;;;;5066925;28;19935;-43
2024/03/22 12:42:54;;;;;;;;;;;22.70;46.50;;;;;;5070058;28;19908;-42
2024/03/22 12:45:20;;;;;;;;;;;22.70;46.40;;;;;;5076677;28;20012;-42
2024/03/22 12:47:46;;;;;;;;;;;22.70;46.40;;;;;;5074377;28;19912;-42
2024/03/22 12:50:13;;;;;;;;;;;22.70;46.40;;;;;;5066760;28;19920;-42
2024/03/22 12:52:39;;;;;;;;;;;22.70;46.40;;;;;;5070258;28;19920;-45
2024/03/22 12:55:06;;;;;;;;;;;22.70;46.40;;;;;;5072120;28;19913;-42
2024/03/22 12:57:32;;;;;;;;;;;22.70;46.40;;;;;;5067688;28;19927;-42
2024/03/22 12:59:58;;;;;;;;;;;22.70;46.50;;;;;;5074939;28;20269;-43
2024/03/22 13:02:26;;;;;;;;;;;22.70;46.50;;;;;;5067943;28;19919;-45
2024/03/22 13:04:53;;;;;;;;;;;22.80;46.60;;;;;;5065899;28;19913;-42
2024/03/22 13:07:19;;;;;;;;;;;22.80;46.60;;;;;;5073368;28;19913;-42
2024/03/22 13:09:45;;;;;;;;;;;22.80;46.60;;;;;;5073575;28;19913;-41
2024/03/22 13:12:11;;;;;;;;;;;22.70;46.50;;;;;;5066290;28;19947;-41
2024/03/22 13:14:37;;;;;;;;;;;22.70;46.50;;;;;;5072510;28;19987;-42
2024/03/22 13:17:03;;;;;;;;;;;22.70;46.50;;;;;;5072900;28;19913;-42
2024/03/22 13:19:29;;;;;;;;;;;22.70;46.50;;;;;;5072166;28;19913;-41
2024/03/22 13:21:55;;;;;;;;;;;22.70;46.50;;;;;;5075742;28;19909;-42
2024/03/22 13:24:21;;;;;;;;;;;22.70;46.70;;;;;;5075849;28;19972;-42
2024/03/22 13:26:47;;;;;;;;;;;22.80;46.70;;;;;;5078363;28;19920;-44
2024/03/22 13:29:13;;;;;;;;;;;22.80;46.70;;;;;;5063804;28;19980;-45
2024/03/22 13:31:39;;;;;;;;;;;22.80;46.70;;;;;;5072756;28;20374;-43
2024/03/22 13:34:05;;;;;;;;;;;22.70;46.60;;;;;;5071597;28;19921;-42
2024/03/22 13:36:36;;;;;;;;;;;22.70;46.60;;;;;;5080193;28;19919;-42
2024/03/22 13:39:02;;;;;;;;;;;22.70;46.60;;;;;;5076746;28;20048;-43
2024/03/22 13:41:28;;;;;;;;;;;22.70;46.60;;;;;;5075910;28;19908;-42
2024/03/22 13:43:54;;;;;;;;;;;22.70;46.60;;;;;;5065482;28;20313;-47
2024/03/22 13:46:20;;;;;;;;;;;22.70;46.70;;;;;;5071859;28;19912;-43
2024/03/22 13:48:45;;;;;;;;;;;22.80;46.80;;;;;;5072252;28;19916;-44
2024/03/22 13:51:12;;;;;;;;;;;22.80;46.70;;;;;;5071626;28;19913;-45
2024/03/22 13:53:38;;;;;;;;;;;22.80;46.70;;;;;;5080559;28;20011;-48
2024/03/22 13:56:04;;;;;;;;;;;22.80;46.70;;;;;;5072069;28;20574;-41
2024/03/22 13:58:29;;;;;;;;;;;22.80;46.70;;;;;;5072221;28;19966;-41
2024/03/22 14:00:55;;;;;;;;;;;22.70;46.70;;;;;;5074934;28;20677;-47
2024/03/22 14:03:21;;;;;;;;;;;22.70;46.70;;;;;;5081310;28;19908;-46
2024/03/22 14:05:47;;;;;;;;;;;22.70;46.70;;;;;;5072292;28;20440;-44
2024/03/22 14:08:13;;;;;;;;;;;22.70;46.70;;;;;;5070848;28;20012;-47
2024/03/22 14:10:39;;;;;;;;;;;22.80;46.90;;;;;;5080623;28;20396;-44
2024/03/22 14:13:07;;;;;;;;;;;22.80;46.80;;;;;;5081472;28;19924;-49